sensor_id;sensor_type;location;lat;lon;timestamp;P1;durP1;ratioP1;P2;durP2;ratioP2
28166;SDS011;15455;53.376;-6.262;2022-08-20T00:02:08;6.25;;;1.20;;
28166;SDS011;15455;53.376;-6.262;2022-08-20T00:04:54;12.75;;;1.85;;
28166;SDS011;15455;53.376;-6.262;2022-08-20T00:07:39;6.85;;;1.48;;
28166;SDS011;15455;53.376;-6.262;2022-08-20T00:10:26;7.93;;;1.33;;
28166;SDS011;15455;53.376;-6.262;2022-08-20T00:13:15;12.60;;;1.50;;
28166;SDS011;15455;53.376;-6.262;2022-08-20T00:16:04;6.35;;;1.13;;
28166;SDS011;15455;53.376;-6.262;2022-08-20T00:18:50;10.85;;;1.45;;
28166;SDS011;15455;53.376;-6.262;2022-08-20T00:21:36;4.88;;;1.20;;
28166;SDS011;15455;53.376;-6.262;2022-08-20T00:24:22;5.57;;;1.50;;
28166;SDS011;15455;53.376;-6.262;2022-08-20T00:27:07;4.65;;;1.13;;
28166;SDS011;15455;53.376;-6.262;2022-08-20T00:29:53;6.28;;;1.15;;
28166;SDS011;15455;53.376;-6.262;2022-08-20T00:32:58;2.35;;;1.15;;
28166;SDS011;15455;53.376;-6.262;2022-08-20T00:35:49;8.48;;;1.70;;
28166;SDS011;15455;53.376;-6.262;2022-08-20T00:38:38;13.15;;;1.20;;
28166;SDS011;15455;53.376;-6.262;2022-08-20T00:41:26;8.88;;;1.15;;
28166;SDS011;15455;53.376;-6.262;2022-08-20T00:44:14;9.43;;;1.10;;
28166;SDS011;15455;53.376;-6.262;2022-08-20T00:47:02;7.03;;;1.00;;
28166;SDS011;15455;53.376;-6.262;2022-08-20T00:49:49;4.50;;;1.30;;
28166;SDS011;15455;53.376;-6.262;2022-08-20T00:52:35;8.95;;;1.67;;
28166;SDS011;15455;53.376;-6.262;2022-08-20T00:55:21;5.32;;;1.17;;
28166;SDS011;15455;53.376;-6.262;2022-08-20T00:58:15;10.00;;;1.67;;
28166;SDS011;15455;53.376;-6.262;2022-08-20T01:01:00;7.50;;;1.33;;
28166;SDS011;15455;53.376;-6.262;2022-08-20T01:03:46;7.47;;;1.55;;
28166;SDS011;15455;53.376;-6.262;2022-08-20T01:06:31;9.98;;;1.80;;
28166;SDS011;15455;53.376;-6.262;2022-08-20T01:09:17;5.82;;;1.20;;
28166;SDS011;15455;53.376;-6.262;2022-08-20T01:12:24;5.35;;;1.55;;
28166;SDS011;15455;53.376;-6.262;2022-08-20T01:15:12;6.40;;;1.38;;
28166;SDS011;15455;53.376;-6.262;2022-08-20T01:18:01;8.13;;;2.03;;
28166;SDS011;15455;53.376;-6.262;2022-08-20T01:20:54;6.20;;;1.38;;
28166;SDS011;15455;53.376;-6.262;2022-08-20T01:26:36;15.35;;;1.75;;
28166;SDS011;15455;53.376;-6.262;2022-08-20T01:29:25;6.68;;;1.55;;
28166;SDS011;15455;53.376;-6.262;2022-08-20T01:32:14;3.42;;;1.48;;
28166;SDS011;15455;53.376;-6.262;2022-08-20T01:35:00;4.05;;;1.50;;
28166;SDS011;15455;53.376;-6.262;2022-08-20T01:37:45;5.60;;;1.60;;
28166;SDS011;15455;53.376;-6.262;2022-08-20T01:40:49;6.05;;;1.35;;
28166;SDS011;15455;53.376;-6.262;2022-08-20T01:43:44;4.55;;;1.08;;
28166;SDS011;15455;53.376;-6.262;2022-08-20T01:46:36;4.28;;;0.90;;
28166;SDS011;15455;53.376;-6.262;2022-08-20T01:49:28;5.43;;;1.25;;
28166;SDS011;15455;53.376;-6.262;2022-08-20T01:53:00;4.38;;;1.08;;
28166;SDS011;15455;53.376;-6.262;2022-08-20T01:55:25;1.48;;;0.90;;
28166;SDS011;15455;53.376;-6.262;2022-08-20T01:58:12;8.73;;;1.20;;
28166;SDS011;15455;53.376;-6.262;2022-08-20T02:00:57;5.05;;;1.33;;
28166;SDS011;15455;53.376;-6.262;2022-08-20T02:03:43;4.45;;;1.80;;
28166;SDS011;15455;53.376;-6.262;2022-08-20T02:06:30;4.03;;;0.98;;
28166;SDS011;15455;53.376;-6.262;2022-08-20T02:09:17;8.40;;;1.10;;
28166;SDS011;15455;53.376;-6.262;2022-08-20T02:12:04;3.65;;;0.88;;
28166;SDS011;15455;53.376;-6.262;2022-08-20T02:14:51;6.60;;;1.10;;
28166;SDS011;15455;53.376;-6.262;2022-08-20T02:17:39;4.18;;;1.67;;
28166;SDS011;15455;53.376;-6.262;2022-08-20T02:20:26;6.03;;;1.30;;
28166;SDS011;15455;53.376;-6.262;2022-08-20T02:23:13;3.22;;;0.77;;
28166;SDS011;15455;53.376;-6.262;2022-08-20T02:26:00;6.88;;;1.35;;
28166;SDS011;15455;53.376;-6.262;2022-08-20T02:28:46;3.10;;;1.00;;
28166;SDS011;15455;53.376;-6.262;2022-08-20T02:31:35;4.75;;;1.30;;
28166;SDS011;15455;53.376;-6.262;2022-08-20T02:34:42;2.78;;;1.05;;
28166;SDS011;15455;53.376;-6.262;2022-08-20T02:37:28;10.10;;;1.40;;
28166;SDS011;15455;53.376;-6.262;2022-08-20T02:40:15;6.57;;;1.30;;
28166;SDS011;15455;53.376;-6.262;2022-08-20T02:43:14;4.13;;;1.45;;
28166;SDS011;15455;53.376;-6.262;2022-08-20T02:46:03;3.88;;;1.40;;
28166;SDS011;15455;53.376;-6.262;2022-08-20T02:48:50;3.38;;;1.35;;
28166;SDS011;15455;53.376;-6.262;2022-08-20T02:51:36;6.60;;;1.10;;
28166;SDS011;15455;53.376;-6.262;2022-08-20T02:54:21;5.00;;;1.38;;
28166;SDS011;15455;53.376;-6.262;2022-08-20T02:57:15;4.05;;;0.95;;
28166;SDS011;15455;53.376;-6.262;2022-08-20T03:00:06;7.63;;;1.10;;
28166;SDS011;15455;53.376;-6.262;2022-08-20T03:02:55;4.43;;;0.90;;
28166;SDS011;15455;53.376;-6.262;2022-08-20T03:05:42;7.28;;;1.15;;
28166;SDS011;15455;53.376;-6.262;2022-08-20T03:08:29;5.38;;;1.38;;
28166;SDS011;15455;53.376;-6.262;2022-08-20T03:11:15;4.20;;;1.27;;
28166;SDS011;15455;53.376;-6.262;2022-08-20T03:14:00;3.58;;;1.65;;
28166;SDS011;15455;53.376;-6.262;2022-08-20T03:16:46;9.63;;;1.85;;
28166;SDS011;15455;53.376;-6.262;2022-08-20T03:19:31;4.78;;;1.35;;
28166;SDS011;15455;53.376;-6.262;2022-08-20T03:22:17;8.73;;;1.73;;
28166;SDS011;15455;53.376;-6.262;2022-08-20T03:25:03;8.50;;;1.65;;
28166;SDS011;15455;53.376;-6.262;2022-08-20T03:27:49;7.55;;;1.40;;
28166;SDS011;15455;53.376;-6.262;2022-08-20T03:30:39;8.27;;;1.70;;
28166;SDS011;15455;53.376;-6.262;2022-08-20T03:33:25;9.43;;;1.88;;
28166;SDS011;15455;53.376;-6.262;2022-08-20T03:36:13;8.90;;;1.40;;
28166;SDS011;15455;53.376;-6.262;2022-08-20T03:39:05;8.50;;;1.80;;
28166;SDS011;15455;53.376;-6.262;2022-08-20T03:41:55;9.85;;;1.70;;
28166;SDS011;15455;53.376;-6.262;2022-08-20T03:44:40;3.10;;;1.33;;
28166;SDS011;15455;53.376;-6.262;2022-08-20T03:47:25;11.98;;;2.08;;
28166;SDS011;15455;53.376;-6.262;2022-08-20T03:50:11;16.27;;;2.72;;
28166;SDS011;15455;53.376;-6.262;2022-08-20T03:53:08;12.55;;;1.58;;
28166;SDS011;15455;53.376;-6.262;2022-08-20T03:55:59;6.75;;;1.75;;
28166;SDS011;15455;53.376;-6.262;2022-08-20T03:58:48;4.95;;;1.52;;
28166;SDS011;15455;53.376;-6.262;2022-08-20T04:01:34;11.30;;;1.70;;
28166;SDS011;15455;53.376;-6.262;2022-08-20T04:04:29;8.45;;;1.73;;
28166;SDS011;15455;53.376;-6.262;2022-08-20T04:07:17;6.90;;;2.45;;
28166;SDS011;15455;53.376;-6.262;2022-08-20T04:10:10;7.57;;;1.83;;
28166;SDS011;15455;53.376;-6.262;2022-08-20T04:12:56;10.13;;;1.98;;
28166;SDS011;15455;53.376;-6.262;2022-08-20T04:15:43;5.45;;;1.63;;
28166;SDS011;15455;53.376;-6.262;2022-08-20T04:18:30;7.50;;;1.63;;
28166;SDS011;15455;53.376;-6.262;2022-08-20T04:21:15;10.93;;;2.28;;
28166;SDS011;15455;53.376;-6.262;2022-08-20T04:24:01;6.65;;;1.45;;
28166;SDS011;15455;53.376;-6.262;2022-08-20T04:26:48;8.07;;;1.73;;
28166;SDS011;15455;53.376;-6.262;2022-08-20T04:29:34;12.02;;;2.05;;
28166;SDS011;15455;53.376;-6.262;2022-08-20T04:32:21;4.75;;;1.60;;
28166;SDS011;15455;53.376;-6.262;2022-08-20T04:35:07;9.60;;;2.03;;
28166;SDS011;15455;53.376;-6.262;2022-08-20T04:37:57;9.63;;;1.67;;
28166;SDS011;15455;53.376;-6.262;2022-08-20T04:40:48;10.00;;;1.77;;
28166;SDS011;15455;53.376;-6.262;2022-08-20T04:43:43;14.23;;;3.00;;
28166;SDS011;15455;53.376;-6.262;2022-08-20T04:46:28;8.82;;;1.38;;
28166;SDS011;15455;53.376;-6.262;2022-08-20T04:49:16;9.18;;;1.67;;
28166;SDS011;15455;53.376;-6.262;2022-08-20T04:52:02;10.73;;;1.90;;
28166;SDS011;15455;53.376;-6.262;2022-08-20T04:54:48;7.72;;;1.60;;
28166;SDS011;15455;53.376;-6.262;2022-08-20T04:57:33;9.45;;;1.90;;
28166;SDS011;15455;53.376;-6.262;2022-08-20T05:00:22;13.70;;;1.90;;
28166;SDS011;15455;53.376;-6.262;2022-08-20T05:03:08;11.65;;;1.92;;
28166;SDS011;15455;53.376;-6.262;2022-08-20T05:05:53;7.35;;;1.98;;
28166;SDS011;15455;53.376;-6.262;2022-08-20T05:08:40;7.13;;;1.73;;
28166;SDS011;15455;53.376;-6.262;2022-08-20T05:11:26;8.70;;;1.95;;
28166;SDS011;15455;53.376;-6.262;2022-08-20T05:14:20;10.35;;;1.85;;
28166;SDS011;15455;53.376;-6.262;2022-08-20T05:17:06;12.02;;;2.00;;
28166;SDS011;15455;53.376;-6.262;2022-08-20T05:19:52;10.13;;;1.95;;
28166;SDS011;15455;53.376;-6.262;2022-08-20T05:22:38;16.80;;;2.80;;
28166;SDS011;15455;53.376;-6.262;2022-08-20T05:25:24;9.18;;;2.05;;
28166;SDS011;15455;53.376;-6.262;2022-08-20T05:28:17;8.95;;;1.92;;
28166;SDS011;15455;53.376;-6.262;2022-08-20T05:31:06;12.73;;;1.85;;
28166;SDS011;15455;53.376;-6.262;2022-08-20T05:33:53;9.40;;;1.98;;
28166;SDS011;15455;53.376;-6.262;2022-08-20T05:36:41;12.05;;;2.20;;
28166;SDS011;15455;53.376;-6.262;2022-08-20T05:39:32;11.50;;;2.37;;
28166;SDS011;15455;53.376;-6.262;2022-08-20T05:42:21;11.95;;;2.47;;
28166;SDS011;15455;53.376;-6.262;2022-08-20T05:45:07;9.48;;;2.10;;
28166;SDS011;15455;53.376;-6.262;2022-08-20T05:47:55;14.82;;;2.20;;
28166;SDS011;15455;53.376;-6.262;2022-08-20T05:50:47;12.10;;;2.28;;
28166;SDS011;15455;53.376;-6.262;2022-08-20T05:53:35;12.07;;;2.35;;
28166;SDS011;15455;53.376;-6.262;2022-08-20T05:56:21;11.63;;;2.08;;
28166;SDS011;15455;53.376;-6.262;2022-08-20T05:59:10;9.30;;;2.35;;
28166;SDS011;15455;53.376;-6.262;2022-08-20T06:01:58;10.20;;;2.33;;
28166;SDS011;15455;53.376;-6.262;2022-08-20T06:04:43;17.23;;;2.70;;
28166;SDS011;15455;53.376;-6.262;2022-08-20T06:07:29;15.20;;;2.30;;
28166;SDS011;15455;53.376;-6.262;2022-08-20T06:10:14;8.35;;;2.22;;
28166;SDS011;15455;53.376;-6.262;2022-08-20T06:12:59;12.88;;;1.73;;
28166;SDS011;15455;53.376;-6.262;2022-08-20T06:15:47;12.40;;;1.80;;
28166;SDS011;15455;53.376;-6.262;2022-08-20T06:18:32;11.13;;;2.58;;
28166;SDS011;15455;53.376;-6.262;2022-08-20T06:21:18;9.55;;;1.92;;
28166;SDS011;15455;53.376;-6.262;2022-08-20T06:24:03;16.67;;;2.72;;
28166;SDS011;15455;53.376;-6.262;2022-08-20T06:26:57;13.48;;;3.15;;
28166;SDS011;15455;53.376;-6.262;2022-08-20T06:29:44;12.35;;;2.15;;
28166;SDS011;15455;53.376;-6.262;2022-08-20T06:32:29;7.43;;;2.53;;
28166;SDS011;15455;53.376;-6.262;2022-08-20T06:35:17;8.75;;;2.40;;
28166;SDS011;15455;53.376;-6.262;2022-08-20T06:38:04;13.68;;;2.35;;
28166;SDS011;15455;53.376;-6.262;2022-08-20T06:40:50;11.88;;;2.25;;
28166;SDS011;15455;53.376;-6.262;2022-08-20T06:43:36;8.40;;;1.95;;
28166;SDS011;15455;53.376;-6.262;2022-08-20T06:46:22;10.80;;;2.22;;
28166;SDS011;15455;53.376;-6.262;2022-08-20T06:49:08;15.52;;;2.30;;
28166;SDS011;15455;53.376;-6.262;2022-08-20T06:51:53;9.50;;;2.55;;
28166;SDS011;15455;53.376;-6.262;2022-08-20T06:54:39;9.70;;;1.90;;
28166;SDS011;15455;53.376;-6.262;2022-08-20T06:57:25;12.65;;;2.30;;
28166;SDS011;15455;53.376;-6.262;2022-08-20T07:00:13;10.52;;;2.15;;
28166;SDS011;15455;53.376;-6.262;2022-08-20T07:03:03;9.20;;;2.15;;
28166;SDS011;15455;53.376;-6.262;2022-08-20T07:05:49;6.50;;;1.80;;
28166;SDS011;15455;53.376;-6.262;2022-08-20T07:08:35;14.88;;;2.40;;
28166;SDS011;15455;53.376;-6.262;2022-08-20T07:11:20;10.35;;;2.35;;
28166;SDS011;15455;53.376;-6.262;2022-08-20T07:14:11;11.73;;;2.30;;
28166;SDS011;15455;53.376;-6.262;2022-08-20T07:16:57;12.68;;;2.65;;
28166;SDS011;15455;53.376;-6.262;2022-08-20T07:19:42;8.95;;;2.38;;
28166;SDS011;15455;53.376;-6.262;2022-08-20T07:22:27;11.75;;;1.85;;
28166;SDS011;15455;53.376;-6.262;2022-08-20T07:25:14;13.07;;;2.20;;
28166;SDS011;15455;53.376;-6.262;2022-08-20T07:28:05;11.90;;;2.40;;
28166;SDS011;15455;53.376;-6.262;2022-08-20T07:30:52;15.30;;;2.03;;
28166;SDS011;15455;53.376;-6.262;2022-08-20T07:33:59;14.82;;;2.50;;
28166;SDS011;15455;53.376;-6.262;2022-08-20T07:36:45;8.60;;;2.22;;
28166;SDS011;15455;53.376;-6.262;2022-08-20T07:39:32;8.40;;;2.42;;
28166;SDS011;15455;53.376;-6.262;2022-08-20T07:42:19;7.85;;;1.90;;
28166;SDS011;15455;53.376;-6.262;2022-08-20T07:45:06;9.88;;;2.58;;
28166;SDS011;15455;53.376;-6.262;2022-08-20T07:48:05;11.27;;;2.70;;
28166;SDS011;15455;53.376;-6.262;2022-08-20T07:50:53;9.68;;;2.20;;
28166;SDS011;15455;53.376;-6.262;2022-08-20T07:53:40;13.27;;;2.55;;
28166;SDS011;15455;53.376;-6.262;2022-08-20T07:56:25;13.43;;;2.53;;
28166;SDS011;15455;53.376;-6.262;2022-08-20T07:59:12;13.93;;;3.38;;
28166;SDS011;15455;53.376;-6.262;2022-08-20T08:01:57;19.95;;;2.95;;
28166;SDS011;15455;53.376;-6.262;2022-08-20T08:04:43;16.02;;;3.47;;
28166;SDS011;15455;53.376;-6.262;2022-08-20T08:07:29;8.35;;;2.10;;
28166;SDS011;15455;53.376;-6.262;2022-08-20T08:10:18;4.75;;;2.25;;
28166;SDS011;15455;53.376;-6.262;2022-08-20T08:13:06;17.95;;;2.97;;
28166;SDS011;15455;53.376;-6.262;2022-08-20T08:15:56;22.45;;;3.00;;
28166;SDS011;15455;53.376;-6.262;2022-08-20T08:18:46;11.73;;;2.85;;
28166;SDS011;15455;53.376;-6.262;2022-08-20T08:21:35;9.15;;;2.17;;
28166;SDS011;15455;53.376;-6.262;2022-08-20T08:24:21;9.52;;;2.20;;
28166;SDS011;15455;53.376;-6.262;2022-08-20T08:27:13;9.63;;;2.20;;
28166;SDS011;15455;53.376;-6.262;2022-08-20T08:30:02;4.63;;;1.52;;
28166;SDS011;15455;53.376;-6.262;2022-08-20T08:32:49;10.25;;;2.15;;
28166;SDS011;15455;53.376;-6.262;2022-08-20T08:35:54;11.48;;;3.05;;
28166;SDS011;15455;53.376;-6.262;2022-08-20T08:38:40;10.18;;;2.42;;
28166;SDS011;15455;53.376;-6.262;2022-08-20T08:41:33;13.52;;;3.00;;
28166;SDS011;15455;53.376;-6.262;2022-08-20T08:44:26;10.88;;;3.08;;
28166;SDS011;15455;53.376;-6.262;2022-08-20T08:47:19;13.00;;;2.25;;
28166;SDS011;15455;53.376;-6.262;2022-08-20T08:50:15;9.18;;;2.40;;
28166;SDS011;15455;53.376;-6.262;2022-08-20T08:53:29;12.02;;;2.30;;
28166;SDS011;15455;53.376;-6.262;2022-08-20T08:56:27;9.20;;;2.42;;
28166;SDS011;15455;53.376;-6.262;2022-08-20T08:59:14;9.10;;;2.72;;
28166;SDS011;15455;53.376;-6.262;2022-08-20T09:01:59;16.00;;;2.17;;
28166;SDS011;15455;53.376;-6.262;2022-08-20T09:04:46;15.18;;;2.15;;
28166;SDS011;15455;53.376;-6.262;2022-08-20T09:07:35;11.02;;;2.55;;
28166;SDS011;15455;53.376;-6.262;2022-08-20T09:10:21;7.22;;;1.95;;
28166;SDS011;15455;53.376;-6.262;2022-08-20T09:13:07;10.35;;;2.45;;
28166;SDS011;15455;53.376;-6.262;2022-08-20T09:15:52;9.98;;;2.10;;
28166;SDS011;15455;53.376;-6.262;2022-08-20T09:18:38;9.30;;;2.83;;
28166;SDS011;15455;53.376;-6.262;2022-08-20T09:21:24;14.32;;;2.70;;
28166;SDS011;15455;53.376;-6.262;2022-08-20T09:24:10;8.60;;;2.28;;
28166;SDS011;15455;53.376;-6.262;2022-08-20T09:26:55;11.80;;;2.83;;
28166;SDS011;15455;53.376;-6.262;2022-08-20T09:29:41;8.85;;;1.98;;
28166;SDS011;15455;53.376;-6.262;2022-08-20T09:32:27;7.65;;;2.00;;
28166;SDS011;15455;53.376;-6.262;2022-08-20T09:35:12;10.57;;;2.25;;
28166;SDS011;15455;53.376;-6.262;2022-08-20T09:37:57;7.07;;;1.92;;
28166;SDS011;15455;53.376;-6.262;2022-08-20T09:40:43;12.43;;;2.78;;
28166;SDS011;15455;53.376;-6.262;2022-08-20T09:43:29;10.25;;;2.08;;
28166;SDS011;15455;53.376;-6.262;2022-08-20T09:46:14;8.48;;;1.90;;
28166;SDS011;15455;53.376;-6.262;2022-08-20T09:48:59;9.02;;;2.17;;
28166;SDS011;15455;53.376;-6.262;2022-08-20T09:51:45;7.75;;;1.67;;
28166;SDS011;15455;53.376;-6.262;2022-08-20T09:54:31;9.50;;;2.38;;
28166;SDS011;15455;53.376;-6.262;2022-08-20T09:57:18;9.98;;;1.77;;
28166;SDS011;15455;53.376;-6.262;2022-08-20T10:00:04;8.73;;;2.28;;
28166;SDS011;15455;53.376;-6.262;2022-08-20T10:03:01;9.60;;;2.40;;
28166;SDS011;15455;53.376;-6.262;2022-08-20T10:05:50;8.60;;;2.58;;
28166;SDS011;15455;53.376;-6.262;2022-08-20T10:08:36;8.45;;;1.85;;
28166;SDS011;15455;53.376;-6.262;2022-08-20T10:11:21;6.53;;;2.20;;
28166;SDS011;15455;53.376;-6.262;2022-08-20T10:14:08;6.05;;;2.10;;
28166;SDS011;15455;53.376;-6.262;2022-08-20T10:16:58;8.65;;;2.22;;
28166;SDS011;15455;53.376;-6.262;2022-08-20T10:19:45;9.43;;;2.22;;
28166;SDS011;15455;53.376;-6.262;2022-08-20T10:22:30;9.38;;;2.00;;
28166;SDS011;15455;53.376;-6.262;2022-08-20T10:25:17;5.50;;;2.22;;
28166;SDS011;15455;53.376;-6.262;2022-08-20T10:28:03;12.43;;;2.50;;
28166;SDS011;15455;53.376;-6.262;2022-08-20T10:30:49;9.65;;;2.00;;
28166;SDS011;15455;53.376;-6.262;2022-08-20T10:33:34;13.43;;;2.38;;
28166;SDS011;15455;53.376;-6.262;2022-08-20T10:36:21;5.60;;;1.95;;
28166;SDS011;15455;53.376;-6.262;2022-08-20T10:39:06;6.43;;;1.58;;
28166;SDS011;15455;53.376;-6.262;2022-08-20T10:41:53;4.88;;;1.85;;
28166;SDS011;15455;53.376;-6.262;2022-08-20T10:44:38;9.07;;;2.03;;
28166;SDS011;15455;53.376;-6.262;2022-08-20T10:47:25;8.65;;;2.25;;
28166;SDS011;15455;53.376;-6.262;2022-08-20T10:50:14;9.45;;;1.98;;
28166;SDS011;15455;53.376;-6.262;2022-08-20T10:53:00;7.00;;;1.83;;
28166;SDS011;15455;53.376;-6.262;2022-08-20T10:55:46;11.20;;;2.65;;
28166;SDS011;15455;53.376;-6.262;2022-08-20T10:58:31;4.43;;;1.90;;
28166;SDS011;15455;53.376;-6.262;2022-08-20T11:01:24;7.65;;;2.15;;
28166;SDS011;15455;53.376;-6.262;2022-08-20T11:04:19;5.95;;;1.77;;
28166;SDS011;15455;53.376;-6.262;2022-08-20T11:09:59;9.02;;;2.05;;
28166;SDS011;15455;53.376;-6.262;2022-08-20T11:12:45;13.10;;;2.15;;
28166;SDS011;15455;53.376;-6.262;2022-08-20T11:15:31;4.85;;;2.20;;
28166;SDS011;15455;53.376;-6.262;2022-08-20T11:18:19;8.45;;;1.90;;
28166;SDS011;15455;53.376;-6.262;2022-08-20T11:21:05;10.50;;;1.98;;
28166;SDS011;15455;53.376;-6.262;2022-08-20T11:23:52;7.43;;;1.95;;
28166;SDS011;15455;53.376;-6.262;2022-08-20T11:26:37;8.07;;;1.73;;
28166;SDS011;15455;53.376;-6.262;2022-08-20T11:29:23;6.93;;;2.08;;
28166;SDS011;15455;53.376;-6.262;2022-08-20T11:32:08;8.38;;;2.58;;
28166;SDS011;15455;53.376;-6.262;2022-08-20T11:34:54;5.20;;;1.55;;
28166;SDS011;15455;53.376;-6.262;2022-08-20T11:37:39;7.57;;;2.20;;
28166;SDS011;15455;53.376;-6.262;2022-08-20T11:40:24;4.93;;;1.83;;
28166;SDS011;15455;53.376;-6.262;2022-08-20T11:43:11;7.63;;;2.05;;
28166;SDS011;15455;53.376;-6.262;2022-08-20T11:46:00;9.13;;;2.13;;
28166;SDS011;15455;53.376;-6.262;2022-08-20T11:48:45;5.38;;;1.67;;
28166;SDS011;15455;53.376;-6.262;2022-08-20T11:51:34;3.92;;;1.80;;
28166;SDS011;15455;53.376;-6.262;2022-08-20T11:54:33;5.85;;;2.05;;
28166;SDS011;15455;53.376;-6.262;2022-08-20T11:57:23;3.42;;;1.70;;
28166;SDS011;15455;53.376;-6.262;2022-08-20T12:00:14;6.25;;;1.92;;
28166;SDS011;15455;53.376;-6.262;2022-08-20T12:03:03;5.15;;;1.85;;
28166;SDS011;15455;53.376;-6.262;2022-08-20T12:05:53;4.85;;;1.85;;
28166;SDS011;15455;53.376;-6.262;2022-08-20T12:08:41;8.52;;;2.10;;
28166;SDS011;15455;53.376;-6.262;2022-08-20T12:11:27;5.25;;;1.38;;
28166;SDS011;15455;53.376;-6.262;2022-08-20T12:14:12;5.60;;;1.60;;
28166;SDS011;15455;53.376;-6.262;2022-08-20T12:17:06;5.00;;;1.60;;
28166;SDS011;15455;53.376;-6.262;2022-08-20T12:19:53;5.60;;;1.83;;
28166;SDS011;15455;53.376;-6.262;2022-08-20T12:22:39;8.18;;;2.03;;
28166;SDS011;15455;53.376;-6.262;2022-08-20T12:25:25;5.32;;;1.58;;
28166;SDS011;15455;53.376;-6.262;2022-08-20T12:28:12;6.60;;;1.60;;
28166;SDS011;15455;53.376;-6.262;2022-08-20T12:30:58;6.88;;;1.63;;
28166;SDS011;15455;53.376;-6.262;2022-08-20T12:33:43;4.65;;;1.42;;
28166;SDS011;15455;53.376;-6.262;2022-08-20T12:36:28;4.57;;;1.77;;
28166;SDS011;15455;53.376;-6.262;2022-08-20T12:39:14;6.95;;;1.65;;
28166;SDS011;15455;53.376;-6.262;2022-08-20T12:42:00;9.07;;;1.90;;
28166;SDS011;15455;53.376;-6.262;2022-08-20T12:44:49;5.95;;;1.48;;
28166;SDS011;15455;53.376;-6.262;2022-08-20T12:47:36;4.28;;;1.27;;
28166;SDS011;15455;53.376;-6.262;2022-08-20T12:50:24;3.05;;;1.33;;
28166;SDS011;15455;53.376;-6.262;2022-08-20T12:53:15;4.78;;;1.60;;
28166;SDS011;15455;53.376;-6.262;2022-08-20T12:56:02;5.07;;;1.80;;
28166;SDS011;15455;53.376;-6.262;2022-08-20T12:58:49;4.75;;;1.58;;
28166;SDS011;15455;53.376;-6.262;2022-08-20T13:01:34;2.35;;;1.55;;
28166;SDS011;15455;53.376;-6.262;2022-08-20T13:04:20;5.20;;;2.10;;
28166;SDS011;15455;53.376;-6.262;2022-08-20T13:07:06;8.40;;;1.80;;
28166;SDS011;15455;53.376;-6.262;2022-08-20T13:09:55;8.95;;;1.77;;
28166;SDS011;15455;53.376;-6.262;2022-08-20T13:12:42;7.00;;;1.75;;
28166;SDS011;15455;53.376;-6.262;2022-08-20T13:15:28;16.30;;;1.95;;
28166;SDS011;15455;53.376;-6.262;2022-08-20T13:18:17;2.90;;;1.70;;
28166;SDS011;15455;53.376;-6.262;2022-08-20T13:21:02;3.47;;;1.63;;
28166;SDS011;15455;53.376;-6.262;2022-08-20T13:23:48;3.78;;;1.70;;
28166;SDS011;15455;53.376;-6.262;2022-08-20T13:26:33;8.57;;;1.35;;
28166;SDS011;15455;53.376;-6.262;2022-08-20T13:29:19;7.82;;;1.63;;
28166;SDS011;15455;53.376;-6.262;2022-08-20T13:32:04;4.22;;;1.85;;
28166;SDS011;15455;53.376;-6.262;2022-08-20T13:34:50;6.38;;;1.80;;
28166;SDS011;15455;53.376;-6.262;2022-08-20T13:37:36;5.90;;;1.85;;
28166;SDS011;15455;53.376;-6.262;2022-08-20T13:40:23;3.33;;;1.73;;
28166;SDS011;15455;53.376;-6.262;2022-08-20T13:43:09;6.88;;;1.77;;
28166;SDS011;15455;53.376;-6.262;2022-08-20T13:45:56;3.72;;;1.45;;
28166;SDS011;15455;53.376;-6.262;2022-08-20T13:48:41;6.38;;;1.60;;
28166;SDS011;15455;53.376;-6.262;2022-08-20T13:51:26;7.30;;;2.05;;
28166;SDS011;15455;53.376;-6.262;2022-08-20T13:54:14;3.60;;;1.55;;
28166;SDS011;15455;53.376;-6.262;2022-08-20T13:57:13;4.90;;;1.77;;
28166;SDS011;15455;53.376;-6.262;2022-08-20T14:00:01;5.47;;;1.90;;
28166;SDS011;15455;53.376;-6.262;2022-08-20T14:02:55;6.97;;;1.65;;
28166;SDS011;15455;53.376;-6.262;2022-08-20T14:05:41;7.43;;;1.38;;
28166;SDS011;15455;53.376;-6.262;2022-08-20T14:08:27;4.45;;;1.60;;
28166;SDS011;15455;53.376;-6.262;2022-08-20T14:11:13;3.90;;;1.73;;
28166;SDS011;15455;53.376;-6.262;2022-08-20T14:14:01;5.57;;;1.80;;
28166;SDS011;15455;53.376;-6.262;2022-08-20T14:16:47;5.38;;;1.60;;
28166;SDS011;15455;53.376;-6.262;2022-08-20T14:19:35;10.73;;;2.50;;
28166;SDS011;15455;53.376;-6.262;2022-08-20T14:22:22;10.57;;;2.47;;
28166;SDS011;15455;53.376;-6.262;2022-08-20T14:25:09;6.25;;;1.95;;
28166;SDS011;15455;53.376;-6.262;2022-08-20T14:27:56;5.40;;;2.05;;
28166;SDS011;15455;53.376;-6.262;2022-08-20T14:30:42;7.20;;;1.60;;
28166;SDS011;15455;53.376;-6.262;2022-08-20T14:33:28;4.88;;;1.45;;
28166;SDS011;15455;53.376;-6.262;2022-08-20T14:36:13;8.07;;;1.77;;
28166;SDS011;15455;53.376;-6.262;2022-08-20T14:38:59;6.93;;;2.15;;
28166;SDS011;15455;53.376;-6.262;2022-08-20T14:41:44;4.20;;;1.75;;
28166;SDS011;15455;53.376;-6.262;2022-08-20T14:44:30;5.65;;;1.90;;
28166;SDS011;15455;53.376;-6.262;2022-08-20T14:50:06;4.90;;;1.75;;
28166;SDS011;15455;53.376;-6.262;2022-08-20T14:52:57;3.25;;;1.70;;
28166;SDS011;15455;53.376;-6.262;2022-08-20T14:55:43;8.52;;;1.88;;
28166;SDS011;15455;53.376;-6.262;2022-08-20T14:58:29;4.25;;;1.75;;
28166;SDS011;15455;53.376;-6.262;2022-08-20T15:01:14;9.23;;;1.75;;
28166;SDS011;15455;53.376;-6.262;2022-08-20T15:04:00;3.63;;;1.45;;
28166;SDS011;15455;53.376;-6.262;2022-08-20T15:06:46;5.22;;;1.63;;
28166;SDS011;15455;53.376;-6.262;2022-08-20T15:09:33;5.03;;;2.00;;
28166;SDS011;15455;53.376;-6.262;2022-08-20T15:12:19;6.30;;;1.92;;
28166;SDS011;15455;53.376;-6.262;2022-08-20T15:15:06;7.13;;;2.08;;
28166;SDS011;15455;53.376;-6.262;2022-08-20T15:18:00;3.53;;;1.50;;
28166;SDS011;15455;53.376;-6.262;2022-08-20T15:20:47;4.47;;;1.50;;
28166;SDS011;15455;53.376;-6.262;2022-08-20T15:23:32;9.35;;;2.17;;
28166;SDS011;15455;53.376;-6.262;2022-08-20T15:26:18;6.93;;;2.17;;
28166;SDS011;15455;53.376;-6.262;2022-08-20T15:29:04;5.78;;;2.38;;
28166;SDS011;15455;53.376;-6.262;2022-08-20T15:31:49;5.43;;;2.03;;
28166;SDS011;15455;53.376;-6.262;2022-08-20T15:34:36;8.43;;;1.88;;
28166;SDS011;15455;53.376;-6.262;2022-08-20T15:37:24;6.35;;;2.05;;
28166;SDS011;15455;53.376;-6.262;2022-08-20T15:40:11;3.75;;;1.80;;
28166;SDS011;15455;53.376;-6.262;2022-08-20T15:43:00;4.13;;;1.70;;
28166;SDS011;15455;53.376;-6.262;2022-08-20T15:45:48;7.00;;;2.13;;
28166;SDS011;15455;53.376;-6.262;2022-08-20T15:48:37;5.45;;;1.60;;
28166;SDS011;15455;53.376;-6.262;2022-08-20T15:54:18;8.35;;;1.40;;
28166;SDS011;15455;53.376;-6.262;2022-08-20T16:00:11;7.25;;;1.77;;
28166;SDS011;15455;53.376;-6.262;2022-08-20T16:06:05;5.40;;;1.42;;
28166;SDS011;15455;53.376;-6.262;2022-08-20T16:12:09;2.90;;;1.17;;
28166;SDS011;15455;53.376;-6.262;2022-08-20T16:15:02;6.10;;;1.77;;
28166;SDS011;15455;53.376;-6.262;2022-08-20T16:18:38;5.47;;;1.60;;
28166;SDS011;15455;53.376;-6.262;2022-08-20T16:21:10;4.93;;;1.85;;
28166;SDS011;15455;53.376;-6.262;2022-08-20T16:24:02;2.22;;;1.40;;
28166;SDS011;15455;53.376;-6.262;2022-08-20T16:30:00;9.60;;;2.00;;
28166;SDS011;15455;53.376;-6.262;2022-08-20T16:32:49;6.90;;;1.67;;
28166;SDS011;15455;53.376;-6.262;2022-08-20T16:35:48;6.97;;;2.00;;
28166;SDS011;15455;53.376;-6.262;2022-08-20T16:38:49;7.22;;;1.88;;
28166;SDS011;15455;53.376;-6.262;2022-08-20T16:41:43;6.22;;;1.52;;
28166;SDS011;15455;53.376;-6.262;2022-08-20T16:44:33;7.30;;;1.95;;
28166;SDS011;15455;53.376;-6.262;2022-08-20T16:47:25;7.82;;;1.88;;
28166;SDS011;15455;53.376;-6.262;2022-08-20T16:53:57;5.40;;;1.60;;
28166;SDS011;15455;53.376;-6.262;2022-08-20T16:56:47;9.85;;;1.85;;
28166;SDS011;15455;53.376;-6.262;2022-08-20T16:59:52;5.47;;;1.83;;
28166;SDS011;15455;53.376;-6.262;2022-08-20T17:03:04;6.30;;;1.48;;